^^
Station Historical Data
Daily Summary for February 4, 2018 Units:  Metric    English   Both
« Previous Day
Next Day »
Daily Weekly Monthly Yearly Custom
  High: Low: Average:
Temperature: -17.8 °C 20.6 °C 29.3 °C
Dew Point: -17.8 °C -1 °C 3.6 °C
Humidity: Humidity% 8% 21%
Wind Speed: 0km/h 0km/h 9.8km/h
Wind Gust: 0km/h - -
Wind- - SSW
Pressure: 0 hPa 1000.6 hPa -
Precipitation: 0 mm    
Historical Graphs
 
 
Tabular Data for February 4, 2018
Time Temperature Dew Point Pressure Wind Wind Speed Wind Gust Humidity Rainfall Rate (Hourly) solar Conditions
-17.8 °C -17.8 °C 0 hPa Calm     Humidity% 0 mm SolarRadiationWatts/m^2 W/m2 Conditions
00:01 28.5 °C 4.7 °C 1006.3 hPa SSW 22.7 km/h 22.7 km/h 22% 0 mm 0.0 W/m2
00:06 28.4 °C 4.6 °C 1006.3 hPa SSW 20.9 km/h 24.1 km/h 22% 0 mm 0.0 W/m2
00:16 28.4 °C 4.6 °C 1006.3 hPa SSW 20.9 km/h 27.4 km/h 22% 0 mm 0.0 W/m2
00:21 28.4 °C 4.6 °C 1006.3 hPa SSW 19.5 km/h 27.4 km/h 22% 0 mm 0.0 W/m2
00:26 28.3 °C 4.5 °C 1006.3 hPa SSW 19.5 km/h 29 km/h 22% 0 mm 0.0 W/m2
00:36 28.1 °C 5 °C 1006.3 hPa SSW 27.4 km/h 27.4 km/h 23% 0 mm 0.0 W/m2
00:46 27.9 °C 4.9 °C 1006.3 hPa SSW 22.7 km/h 22.7 km/h 23% 0 mm 0.0 W/m2
00:56 27.8 °C 4.8 °C 1006.3 hPa SSW 19.5 km/h 25.7 km/h 23% 0 mm 0.0 W/m2
01:01 27.7 °C 4.7 °C 1006.3 hPa SSW 14.3 km/h 22.5 km/h 23% 0 mm 0.0 W/m2
01:06 27.6 °C 4.6 °C 1006.3 hPa SSW 17.7 km/h 20.9 km/h 23% 0 mm 0.0 W/m2
01:11 27.4 °C 5 °C 1006.3 hPa SSW 17.7 km/h 20.9 km/h 24% 0 mm 0.0 W/m2
01:21 27.2 °C 4.9 °C 1006.3 hPa SSW 11.1 km/h 16.1 km/h 24% 0 mm 0.0 W/m2
01:26 27.1 °C 4.8 °C 1006.3 hPa SSW 4.7 km/h 17.7 km/h 24% 0 mm 0.0 W/m2
01:31 27 °C 4.7 °C 1006.3 hPa SSW 7.9 km/h 11.3 km/h 24% 0 mm 0.0 W/m2
01:36 26.8 °C 5.1 °C 1006.3 hPa SSW 11.1 km/h 16.1 km/h 25% 0 mm 0.0 W/m2
01:46 26.6 °C 5 °C 1006.3 hPa SSW 13 km/h 19.3 km/h 25% 0 mm 0.0 W/m2
01:51 26.5 °C 4.9 °C 1006.3 hPa SSW 16.3 km/h 16.3 km/h 25% 0 mm 0.0 W/m2
02:01 26.4 °C 4.8 °C 1006 hPa SSW 14.3 km/h 17.7 km/h 25% 0 mm 0.0 W/m2
02:11 26.1 °C 5.1 °C 1006 hPa SSW 14.3 km/h 16.1 km/h 26% 0 mm 0.0 W/m2
02:16 26 °C 5 °C 1006 hPa SSW 6.4 km/h 9.7 km/h 26% 0 mm 0.0 W/m2
02:21 25.9 °C 4.9 °C 1006 hPa SSW 7.9 km/h 9.7 km/h 26% 0 mm 0.0 W/m2
02:27 25.7 °C 4.8 °C 1006 hPa SSW 9.7 km/h 9.7 km/h 26% 0 mm 0.0 W/m2
02:32 25.5 °C 4.6 °C 1006 hPa SSW 9.7 km/h 11.3 km/h 26% 0 mm 0.0 W/m2
02:42 25.4 °C 4.5 °C 1006 hPa SSW 6.4 km/h 6.4 km/h 26% 0 mm 0.0 W/m2
02:47 25.3 °C 4.4 °C 1006.3 hPa SSW 6.4 km/h 8 km/h 26% 0 mm 0.0 W/m2
02:52 25.1 °C 4.8 °C 1006.3 hPa SSW 6.4 km/h 9.7 km/h 27% 0 mm 0.0 W/m2
02:57 25 °C 4.7 °C 1006 hPa SSW 9.7 km/h 12.9 km/h 27% 0 mm 0.0 W/m2
03:07 24.8 °C 4.5 °C 1005.6 hPa SSW 14.3 km/h 14.5 km/h 27% 0 mm 0.0 W/m2
03:12 24.8 °C 4.5 °C 1006 hPa SSW 9.7 km/h 14.5 km/h 27% 0 mm 0.0 W/m2
03:17 24.8 °C 4.5 °C 1006 hPa SSW 9.7 km/h 11.3 km/h 27% 0 mm 0.0 W/m2
03:22 24.7 °C 5 °C 1005.6 hPa SSW 7.9 km/h 11.3 km/h 28% 0 mm 0.0 W/m2
03:27 24.6 °C 4.9 °C 1005.6 hPa SSW 11.1 km/h 12.9 km/h 28% 0 mm 0.0 W/m2
03:32 24.6 °C 4.9 °C 1005.6 hPa SSW 7.9 km/h 11.3 km/h 28% 0 mm 0.0 W/m2
03:37 24.5 °C 4.8 °C 1005.6 hPa SSW 6.4 km/h 8 km/h 28% 0 mm 0.0 W/m2
03:42 24.4 °C 4.7 °C 1005.6 hPa SSW 7.9 km/h 9.7 km/h 28% 0 mm 0.0 W/m2
03:47 24.2 °C 4.5 °C 1005.6 hPa SSW 6.4 km/h 8 km/h 28% 0 mm 0.0 W/m2
03:52 24 °C 4.4 °C 1005.6 hPa Calm     28% 0 mm 0.0 W/m2
03:57 23.8 °C 4.7 °C 1005.6 hPa Calm     29% 0 mm 0.0 W/m2
04:02 23.7 °C 4.6 °C 1005.6 hPa Calm     29% 0 mm 0.0 W/m2
04:07 23.5 °C 4.4 °C 1005.6 hPa Calm     29% 0 mm 0.0 W/m2
04:13 23.3 °C 4.3 °C 1005.3 hPa Calm     29% 0 mm 0.0 W/m2
04:18 23.3 °C 4.3 °C 1005.6 hPa Calm     29% 0 mm 0.0 W/m2
04:23 23.2 °C 4.2 °C 1005.6 hPa Calm     29% 0 mm 0.0 W/m2
04:28 23.1 °C 4.6 °C 1005.6 hPa Calm     30% 0 mm 0.0 W/m2
04:33 23 °C 4.5 °C 1005.3 hPa Calm     30% 0 mm 0.0 W/m2
04:39 22.9 °C 4.4 °C 1005.3 hPa Calm     30% 0 mm 0.0 W/m2
04:44 22.9 °C 4.4 °C 1005.3 hPa Calm     30% 0 mm 0.0 W/m2
04:49 22.9 °C 4.9 °C 1005.3 hPa Calm     31% 0 mm 0.0 W/m2
04:54 22.9 °C 4.9 °C 1005.3 hPa Calm     31% 0 mm 0.0 W/m2
05:00 22.9 °C 4.9 °C 1005.6 hPa Calm     31% 0 mm 0.0 W/m2
05:05 22.8 °C 4.8 °C 1006 hPa Calm     31% 0 mm 0.0 W/m2
05:10 22.8 °C 4.8 °C 1006 hPa Calm     31% 0 mm 0.0 W/m2
05:15 22.8 °C 4.8 °C 1006 hPa Calm     31% 0 mm 0.0 W/m2
05:20 22.8 °C 4.8 °C 1006 hPa Calm     31% 0 mm 0.0 W/m2
05:25 22.8 °C 4.8 °C 1006 hPa Calm     31% 0 mm 0.0 W/m2
05:30 22.6 °C 4.6 °C 1006 hPa Calm     31% 0 mm 0.0 W/m2
05:35 22.4 °C 4.4 °C 1006 hPa Calm     31% 0 mm 0.0 W/m2
05:45 21.9 °C 4.5 °C 1006 hPa Calm     32% 0 mm 0.0 W/m2
05:50 21.7 °C 4.3 °C 1006 hPa Calm     32% 0 mm 0.0 W/m2
05:55 21.5 °C 4.5 °C 1006 hPa Calm     33% 0 mm 0.0 W/m2
06:00 21.3 °C 4.4 °C 1006 hPa Calm     33% 0 mm 0.0 W/m2
06:05 21.1 °C 4.2 °C 1006 hPa Calm     33% 0 mm 0.0 W/m2
06:11 21 °C 4.5 °C 1006 hPa Calm     34% 0 mm 0.0 W/m2
06:16 20.9 °C 4.4 °C 1006 hPa Calm     34% 0 mm 0.0 W/m2
06:21 20.9 °C 4.9 °C 1006 hPa Calm     35% 0 mm 0.0 W/m2
06:26 20.8 °C 4.8 °C 1006.3 hPa Calm     35% 0 mm 5.0 W/m2
06:31 20.7 °C 4.3 °C 1006 hPa Calm     34% 0 mm 9.0 W/m2
06:36 20.6 °C 4.2 °C 1006 hPa Calm     34% 0 mm 12.0 W/m2
06:41 20.8 °C 3.9 °C 1006 hPa Calm     33% 0 mm 16.0 W/m2
07:00 21.1 °C 4.6 °C 1006.3 hPa Calm     34% 0 mm 47.0 W/m2
07:11 21.9 °C 4.9 °C 1006.3 hPa Calm     33% 0 mm 76.0 W/m2
07:52 24.7 °C 5.5 °C 1006.7 hPa Calm     29% 0 mm 243.0 W/m2
08:03 25.4 °C 5.6 °C 1006.7 hPa SSW 9.7 km/h 11.3 km/h 28% 0 mm 276.0 W/m2
08:19 25.9 °C 5.5 °C 1006.7 hPa SSW 11.1 km/h 12.9 km/h 27% 0 mm 330.0 W/m2
08:32 26.6 °C 5.5 °C 1006.3 hPa SSW 14.3 km/h 16.1 km/h 26% 0 mm 383.0 W/m2
08:43 27 °C 5.3 °C 1006.3 hPa SSW 11.1 km/h 14.5 km/h 25% 0 mm 417.0 W/m2
08:54 27.4 °C 5 °C 1006.3 hPa SSW 13 km/h 14.5 km/h 24% 0 mm 459.0 W/m2
09:08 28 °C 4.9 °C 1006.3 hPa SSW 9.7 km/h 14.5 km/h 23% 0 mm 508.0 W/m2
09:16 28.5 °C 4.7 °C 1006.3 hPa SSW 13 km/h 14.5 km/h 22% 0 mm 543.0 W/m2
09:22 28.6 °C 4.8 °C 1006.3 hPa SSW 6.4 km/h 14.5 km/h 22% 0 mm 559.0 W/m2
09:29 29.1 °C 4.5 °C 1006.3 hPa SSW 9.7 km/h 12.9 km/h 21% 0 mm 591.0 W/m2
09:37 29.5 °C 4.9 °C 1006.3 hPa SSW 11.1 km/h 16.1 km/h 21% 0 mm 608.0 W/m2
09:43 29.7 °C 5 °C 1006.3 hPa SSW 11.1 km/h 14.5 km/h 21% 0 mm 624.0 W/m2
09:52 30.2 °C 4.8 °C 1006 hPa SSW 9.7 km/h 11.3 km/h 20% 0 mm 656.0 W/m2
10:05 30.7 °C 4.4 °C 1006 hPa SSW 7.9 km/h 14.5 km/h 19% 0 mm 684.0 W/m2
10:51 33.1 °C 3.9 °C 1005.6 hPa SSW 7.9 km/h 11.3 km/h 16% 0 mm 807.0 W/m2
11:36 35.1 °C 2.6 °C 1005.3 hPa SSW 11.1 km/h 11.3 km/h 13% 0 mm 893.0 W/m2
11:51 35.7 °C 3 °C 1005 hPa SSW 16.3 km/h 17.7 km/h 13% 0 mm 916.0 W/m2
12:05 36 °C 4.3 °C 1004.6 hPa Calm   12.9 km/h 14% 0 mm 935.0 W/m2
12:16 36.1 °C 4.4 °C 1004.6 hPa Calm     14% 0 mm 944.0 W/m2
12:26 36.6 °C 4.8 °C 1004.3 hPa SSW 11.1 km/h 16.1 km/h 14% 0 mm 949.0 W/m2
12:41 37.1 °C 4.1 °C 1003.9 hPa SSW 9.7 km/h 12.9 km/h 13% 0 mm 962.0 W/m2
12:57 37.2 °C 4.2 °C 1003.9 hPa SSW 9.7 km/h 17.7 km/h 13% 0 mm 967.0 W/m2
13:11 37.7 °C 4.6 °C 1003.9 hPa SSW 11.1 km/h 14.5 km/h 13% 0 mm 969.0 W/m2
13:42 38.6 °C 4.1 °C 1003.3 hPa Calm   4.8 km/h 12% 0 mm 956.0 W/m2
14:09 39.1 °C 4.5 °C 1002.9 hPa Calm     12% 0 mm 933.0 W/m2
14:23 39.3 °C 4.7 °C 1002.6 hPa SW 3.2 km/h 4.8 km/h 12% 0 mm 919.0 W/m2
14:42 39.7 °C 3.7 °C 1002.3 hPa WSW 13 km/h 19.3 km/h 11% 0 mm 881.0 W/m2
15:03 39.3 °C 3.4 °C 1001.9 hPa Calm   14.5 km/h 11% 0 mm 861.0 W/m2
15:18 39.6 °C 3.7 °C 1001.9 hPa Calm     11% 0 mm 814.0 W/m2
15:28 40.3 °C 4.2 °C 1001.9 hPa Calm     11% 0 mm 782.0 W/m2
15:49 39.7 °C 3.7 °C 1001.6 hPa WSW 13 km/h 20.9 km/h 11% 0 mm 744.0 W/m2
15:58 39.8 °C 2.5 °C 1001.2 hPa WNW 13 km/h 13 km/h 10% 0 mm 721.0 W/m2
16:13 40.2 °C 2.8 °C 1001.2 hPa WSW 13 km/h 16.1 km/h 10% 0 mm 663.0 W/m2
16:35 39.8 °C 2.5 °C 1000.9 hPa Calm     10% 0 mm 622.0 W/m2
16:49 40 °C 2.6 °C 1000.9 hPa WSW 6.4 km/h 9.7 km/h 10% 0 mm 570.0 W/m2
16:59 39.9 °C -0.6 °C 1000.6 hPa South 14.3 km/h 19.3 km/h 8% 0 mm 475.0 W/m2
17:09 39.9 °C -0.6 °C 1000.6 hPa South 19.5 km/h 24.1 km/h 8% 0 mm 496.0 W/m2
17:25 39.8 °C -0.6 °C 1000.6 hPa SSE 9.7 km/h 25.7 km/h 8% 0 mm 439.0 W/m2
17:43 39.6 °C -0.8 °C 1000.6 hPa SSE 13 km/h 16.1 km/h 8% 0 mm 318.0 W/m2
17:50 39.7 °C -0.7 °C 1000.6 hPa SSE 20.9 km/h 22.5 km/h 8% 0 mm 341.0 W/m2
17:57 39.6 °C -0.8 °C 1000.6 hPa SSE 16.3 km/h 19.3 km/h 8% 0 mm 311.0 W/m2
18:02 39.4 °C -0.9 °C 1000.6 hPa SSE 19.5 km/h 19.5 km/h 8% 0 mm 276.0 W/m2
18:08 39.4 °C -0.9 °C 1000.6 hPa SSE 14.3 km/h 19.3 km/h 8% 0 mm 258.0 W/m2
18:19 39.4 °C -0.9 °C 1000.6 hPa South 20.9 km/h 24.1 km/h 8% 0 mm 257.0 W/m2
18:30 39.3 °C -1 °C 1000.6 hPa South 17.7 km/h 22.5 km/h 8% 0 mm 204.0 W/m2
18:40 39 °C 0.4 °C 1000.6 hPa South 20.9 km/h 20.9 km/h 9% 0 mm 100.0 W/m2
18:50 38.5 °C 1.5 °C 1000.6 hPa SSW 16.3 km/h 20.9 km/h 10% 0 mm 63.0 W/m2
19:00 38.6 °C 1.6 °C 1000.9 hPa SSE 17.7 km/h 27.4 km/h 10% 0 mm 76.0 W/m2
19:14 38.3 °C 1.3 °C 1000.9 hPa South 27.4 km/h 30.6 km/h 10% 0 mm 54.0 W/m2
19:24 37.8 °C 1 °C 1000.9 hPa South 25.9 km/h 33.8 km/h 10% 0 mm 28.0 W/m2
19:30 37.3 °C 0.6 °C 1001.2 hPa South 27.4 km/h 35.4 km/h 10% 0 mm 16.0 W/m2
19:46 36.9 °C 0.3 °C 1001.2 hPa South 24.1 km/h 32.2 km/h 10% 0 mm 5.0 W/m2
19:59 36.6 °C 0 °C 1001.6 hPa SSW 17.7 km/h 32.2 km/h 10% 0 mm 0.0 W/m2
20:10 36.2 °C 1.1 °C 1001.6 hPa South 24.1 km/h 30.6 km/h 11% 0 mm 0.0 W/m2
20:26 35.7 °C 0.7 °C 1001.9 hPa South 28.8 km/h 35.4 km/h 11% 0 mm 0.0 W/m2
20:41 35.2 °C 1.5 °C 1001.9 hPa South 33.8 km/h 38.6 km/h 12% 0 mm 0.0 W/m2
20:50 34.7 °C 2.2 °C 1001.9 hPa South 20.9 km/h 32.2 km/h 13% 0 mm 0.0 W/m2
21:06 34.3 °C 3 °C 1002.3 hPa South 32 km/h 35.4 km/h 14% 0 mm 0.0 W/m2
21:21 33.8 °C 2.6 °C 1002.6 hPa South 19.5 km/h 27.4 km/h 14% 0 mm 0.0 W/m2
21:35 33.6 °C 2.4 °C 1002.6 hPa South 20.9 km/h 27.4 km/h 14% 0 mm 0.0 W/m2
21:44 33.3 °C 2.2 °C 1002.9 hPa South 20.9 km/h 27.4 km/h 14% 0 mm 0.0 W/m2
21:55 33 °C 2.9 °C 1002.9 hPa SSW 19.5 km/h 24.1 km/h 15% 0 mm 0.0 W/m2
22:06 32.7 °C 2.7 °C 1002.9 hPa SSW 17.7 km/h 27.4 km/h 15% 0 mm 0.0 W/m2
22:19 32.3 °C 3.3 °C 1003.3 hPa SW 17.7 km/h 19.3 km/h 16% 0 mm 0.0 W/m2
22:27 32 °C 3 °C 1003.6 hPa SSW 13 km/h 17.7 km/h 16% 0 mm 0.0 W/m2
Canyon Roadhouse, Fishriver Canyon, Namibia
Compliments of Weather Underground - 2.25 mb